CheckWX is a tool to help pilots better visualize weather data.  It is not intended as a substitute for an official pre-flight weather briefing.

13:33:09 UTC

SAAR TAF
Islas Malvinas Airport
Rosario, Argentina
TAF SAAR 201100Z 2012/2112 11010KT 9999 SCT015 OVC100 TX16/2017Z TN09/2107Z BECMG 2015/2017 BKN015 OVC050 BECMG 2017/2019 16015KT 6000 RA BKN10 OVC035 TEMPO 2019/2023 VRB15KT 1500 +TSRA BKN007 OVC030 FEW040CB BECMG 2101/2103 18015KT 2000 RADZ BKN008 OVC030

May-20@
12:00 UTC

May-20 @ 12:00 UTC

May-20@
15:00 UTC

May-20 @ 15:00 UTC

TAF SAAR 201100Z 2012/2112 11010KT 9999 SCT015 OVC100 TX16/2017Z TN09/2107Z
Wind
  • 110° at 10 KTS
Cloud Levels
  • Scattered at 1,500' AGL
  • Overcast at 10,000' AGL

May-20@
15:00 UTC

May-20 @ 15:00 UTC

May-20@
17:00 UTC

May-20 @ 17:00 UTC

BECMG 2015/2017 BKN015 OVC050

Becoming

Becoming Conditions expected by Mon, May 20, 2019 @ 17:00 UTC

Wind
  • 110° at 10 KTS
Cloud Levels
  • Broken at 1,500' AGL
  • Overcast at 5,000' AGL

May-20@
17:00 UTC

May-20 @ 17:00 UTC

May-21@
01:00 UTC

May-21 @ 01:00 UTC

BECMG 2017/2019 16015KT 6000 RA BKN10 OVC035

Becoming

Becoming Conditions expected by Mon, May 20, 2019 @ 19:00 UTC

Wind
  • 160° at 15 KTS
Conditions
Rain
Cloud Levels
  • Overcast at 3,500' AGL

May-20@
19:00 UTC

May-20 @ 19:00 UTC

May-20@
23:00 UTC

May-20 @ 23:00 UTC

TEMPO 2019/2023 VRB15KT 1500 +TSRA BKN007 OVC030 FEW040CB

Temporary

Temporary Changes expected for less than half the time period

Wind
  • Variable at 15 KTS
Conditions
Heavy Thunderstorm, Heavy Rain
Cloud Levels
  • Broken at 700' AGL
  • Overcast at 3,000' AGL
  • Few at 4,000' AGL

May-21@
01:00 UTC

May-21 @ 01:00 UTC

May-21@
12:00 UTC

May-21 @ 12:00 UTC

BECMG 2101/2103 18015KT 2000 RADZ BKN008 OVC030

Becoming

Becoming Conditions expected by Tue, May 21, 2019 @ 03:00 UTC

Wind
  • 180° at 15 KTS
Conditions
Rain, Drizzle
Cloud Levels
  • Broken at 800' AGL
  • Overcast at 3,000' AGL